Time;durP1;ratioP1;P1;durP2;ratioP2;P2;SDS_P1;SDS_P2;PMS_P1;PMS_P2;Temp;Humidity;BMP_temperature;BMP_pressure;BME280_temperature;BME280_humidity;BME280_pressure;Samples;Min_cycle;Max_cycle;Signal;HPM_P1;HPM_P2
2022/01/19 00:01:54;;;;;;;1.50;1.50;;;;;;;1.19;68.25;101868.52;103459;1276;99517;-65
2022/01/19 00:04:22;;;;;;;1.50;1.50;;;;;;;1.25;68.46;101868.21;103568;1277;108803;-64
2022/01/19 00:06:49;;;;;;;1.40;1.40;;;;;;;1.34;68.63;101871.84;103361;1277;138931;-64
2022/01/19 00:09:17;;;;;;;1.40;1.40;;;;;;;1.36;68.31;101873.11;103526;1276;95236;-66
2022/01/19 00:11:45;;;;;;;1.50;1.50;;;;;;;1.38;67.98;101873.73;103344;1277;138846;-66
2022/01/19 00:14:13;;;;;;;1.40;1.40;;;;;;;1.37;68.15;101870.02;103468;1277;99485;-65
2022/01/19 00:16:40;;;;;;;1.70;1.70;;;;;;;1.32;68.13;101863.73;103565;1277;108834;-66
2022/01/19 00:19:08;;;;;;;1.40;1.40;;;;;;;1.30;68.43;101855.95;103380;1277;138597;-63
2022/01/19 00:21:36;;;;;;;1.30;1.30;;;;;;;1.31;68.48;101850.37;103513;1277;96533;-65
2022/01/19 00:24:04;;;;;;;1.30;1.30;;;;;;;1.29;68.49;101848.59;103422;1277;138197;-65
2022/01/19 00:26:35;;;;;;;1.40;1.40;;;;;;;1.23;68.66;101841.52;103536;1277;99386;-64
2022/01/19 00:29:03;;;;;;;1.40;1.40;;;;;;;1.24;68.68;101829.31;103457;1277;139247;-65
2022/01/19 00:31:31;;;;;;;1.60;1.60;;;;;;;1.30;69.05;101819.55;103383;1277;95990;-64
2022/01/19 00:33:59;;;;;;;1.70;1.70;;;;;;;1.26;68.72;101821.35;103541;1277;96490;-63
2022/01/19 00:36:27;;;;;;;1.70;1.70;;;;;;;1.31;69.15;101826.40;103400;1277;138162;-63
2022/01/19 00:38:54;;;;;;;1.40;1.40;;;;;;;1.44;69.29;101833.66;103557;1277;99764;-64
2022/01/19 00:41:22;;;;;;;1.30;1.30;;;;;;;1.46;69.03;101831.30;103442;1275;138373;-64
2022/01/19 00:43:50;;;;;;;1.30;1.30;;;;;;;1.47;68.69;101829.92;103544;1277;95591;-64
2022/01/19 00:46:18;;;;;;;1.40;1.40;;;;;;;1.36;69.35;101832.02;103520;1277;95127;-65
2022/01/19 00:48:46;;;;;;;1.40;1.40;;;;;;;1.36;69.47;101832.55;103409;1277;138473;-65
2022/01/19 00:51:13;;;;;;;1.40;1.40;;;;;;;1.42;69.28;101825.56;103529;1277;99033;-66
2022/01/19 00:53:41;;;;;;;1.30;1.30;;;;;;;1.48;69.52;101825.42;103422;1277;138171;-66
2022/01/19 00:56:10;;;;;;;1.50;1.50;;;;;;;1.60;69.45;101830.71;103616;1276;95928;-65
2022/01/19 00:58:38;;;;;;;1.50;1.50;;;;;;;1.63;69.16;101831.00;103578;1276;96146;-65
2022/01/19 01:01:06;;;;;;;1.30;1.30;;;;;;;1.61;69.34;101827.95;103355;1277;139179;-65
2022/01/19 01:03:34;;;;;;;1.30;1.30;;;;;;;1.64;69.05;101817.89;104048;1277;100183;-66
2022/01/19 01:06:02;;;;;;;1.40;1.40;;;;;;;1.65;69.04;101806.02;103454;1277;137979;-65
2022/01/19 01:08:29;;;;;;;1.40;1.40;;;;;;;1.69;68.97;101808.06;103441;1275;95241;-66
2022/01/19 01:10:58;;;;;;;1.20;1.20;;;;;;;1.69;68.74;101800.02;103411;1277;138569;-65
2022/01/19 01:15:24;;;;;;;1.30;1.30;;;;;;;1.70;68.87;101794.80;103512;1277;110038;-66
2022/01/19 01:16:30;;;;;;;1.30;1.30;;;;;;;1.77;68.99;101804.32;103511;1276;99389;-65
2022/01/19 01:18:59;;;;;;;1.40;1.40;;;;;;;1.82;68.84;101802.70;103732;1277;138661;-66
2022/01/19 01:21:27;;;;;;;1.20;1.20;;;;;;;1.94;68.72;101798.37;103923;1277;95202;-65
2022/01/19 01:23:55;;;;;;;1.30;1.30;;;;;;;1.98;68.31;101796.24;103240;1276;138176;-66
2022/01/19 01:26:23;;;;;;;1.30;1.30;;;;;;;2.03;68.59;101787.44;103358;1276;109948;-66
2022/01/19 01:28:52;;;;;;;1.30;1.30;;;;;;;2.08;68.30;101784.45;103297;1277;98606;-65
2022/01/19 01:31:20;;;;;;;1.20;1.20;;;;;;;2.22;68.00;101772.59;103442;1277;139051;-65
2022/01/19 01:33:47;;;;;;;1.20;1.20;;;;;;;2.19;67.96;101762.16;103491;1277;96235;-64
2022/01/19 01:36:15;;;;;;;1.20;1.20;;;;;;;2.18;67.94;101753.73;103318;1277;137814;-64
2022/01/19 01:38:44;;;;;;;1.30;1.30;;;;;;;2.24;67.80;101753.02;103718;1277;109690;-65
2022/01/19 01:41:14;;;;;;;1.10;1.10;;;;;;;2.21;67.84;101742.59;103420;1277;139430;-65
2022/01/19 01:43:51;;;;;;;1.30;1.30;;;;;;;2.10;67.66;101742.63;103633;1277;109320;-65
2022/01/19 01:46:35;;;;;;;1.30;1.30;;;;;;;1.95;68.43;101734.84;103793;1277;95733;-66
2022/01/19 01:49:04;;;;;;;1.20;1.20;;;;;;;1.93;68.55;101728.81;103611;1277;138043;-66
2022/01/19 01:54:18;;;;;;;1.30;1.30;;;;;;;2.09;68.23;101712.47;103361;1277;138310;-63
2022/01/19 01:56:46;;;;;;;1.40;1.40;;;;;;;2.10;68.18;101706.35;103501;1277;108831;-65
2022/01/19 01:59:14;;;;;;;1.30;1.30;;;;;;;2.04;67.81;101702.52;103296;1277;138238;-65
2022/01/19 02:01:43;;;;;;;1.20;1.20;;;;;;;2.00;68.02;101695.58;103579;1277;95127;-63
2022/01/19 02:04:13;;;;;;;1.20;1.20;;;;;;;2.05;68.23;101685.00;103551;1277;109651;-66
2022/01/19 02:07:04;;;;;;;1.20;1.20;;;;;;;2.01;67.95;101675.80;103713;1277;137932;-64
2022/01/19 02:09:38;;;;;;;1.30;1.30;;;;;;;2.13;68.07;101677.37;103493;1277;108816;-66
2022/01/19 02:25:53;;;;;;;1.20;1.20;;;;;;;2.12;67.69;101679.10;103646;1277;96118;-66
2022/01/19 02:40:11;;;;;;;1.20;1.20;;;;;;;1.97;68.68;101652.20;103251;1277;96035;-65
2022/01/19 02:42:27;;;;;;;1.30;1.30;;;;;;;1.96;68.52;101649.37;103402;1277;138736;-67
2022/01/19 02:49:55;;;;;;;1.40;1.40;;;;;;;2.00;69.23;101631.11;103464;1277;109004;-64
2022/01/19 02:52:24;;;;;;;1.30;1.30;;;;;;;2.04;69.94;101629.98;103474;1277;95261;-66
2022/01/19 02:54:52;;;;;;;1.30;1.30;;;;;;;2.09;69.84;101625.41;103542;1276;138552;-65
2022/01/19 02:57:25;;;;;;;1.00;1.00;;;;;;;2.10;69.83;101617.20;103921;1277;109623;-64
2022/01/19 03:10:42;;;;;;;1.20;1.20;;;;;;;2.09;70.57;101603.33;103449;1277;109753;-66
2022/01/19 03:13:11;;;;;;;1.20;1.20;;;;;;;2.05;70.45;101592.52;103357;1277;139017;-67
2022/01/19 03:15:40;;;;;;;1.30;1.30;;;;;;;2.01;70.98;101581.02;103541;1277;107714;-66
2022/01/19 03:18:07;;;;;;;1.30;1.30;;;;;;;1.98;71.05;101575.52;103387;1277;138727;-66
2022/01/19 03:20:35;;;;;;;1.20;1.20;;;;;;;1.95;71.44;101567.38;103514;1277;95557;-65
2022/01/19 03:23:10;;;;;;;1.20;1.20;;;;;;;1.92;71.85;101560.80;103436;1277;138632;-66
2022/01/19 03:25:39;;;;;;;1.30;1.30;;;;;;;1.95;71.61;101549.33;103518;1277;98951;-64
2022/01/19 03:28:07;;;;;;;1.20;1.20;;;;;;;1.99;71.77;101547.52;103559;1277;107119;-66
2022/01/19 03:30:35;;;;;;;1.20;1.20;;;;;;;2.08;71.78;101543.73;103275;1277;138772;-66
2022/01/19 03:33:03;;;;;;;1.30;1.30;;;;;;;2.11;71.45;101535.94;103799;1277;95584;-64
2022/01/19 03:35:31;;;;;;;1.30;1.30;;;;;;;2.11;71.41;101531.20;103350;1277;138453;-64
2022/01/19 03:37:59;;;;;;;1.30;1.30;;;;;;;2.08;72.04;101529.71;103377;1277;99487;-64
2022/01/19 03:40:27;;;;;;;1.20;1.20;;;;;;;2.08;71.62;101522.38;103489;1277;108762;-66
2022/01/19 03:42:55;;;;;;;1.30;1.30;;;;;;;2.05;72.23;101518.42;103310;1278;138732;-64
2022/01/19 03:45:37;;;;;;;1.30;1.30;;;;;;;2.12;72.34;101515.99;103325;1280;95329;-65
2022/01/19 03:50:38;;;;;;;1.20;1.20;;;;;;;2.14;72.00;101513.43;103710;1276;100643;-66
2022/01/19 03:53:06;;;;;;;1.20;1.20;;;;;;;2.08;72.34;101505.90;103397;1277;139334;-65
2022/01/19 03:55:33;;;;;;;1.30;1.30;;;;;;;2.16;72.09;101498.42;103539;1277;95254;-65
2022/01/19 03:58:01;;;;;;;1.20;1.20;;;;;;;2.14;72.25;101487.32;103479;1277;95253;-64
2022/01/19 04:00:33;;;;;;;1.20;1.20;;;;;;;2.09;72.53;101484.91;103394;1277;139571;-65
2022/01/19 04:03:05;;;;;;;1.10;1.10;;;;;;;2.16;72.33;101486.83;103357;1277;99651;-65
2022/01/19 04:05:44;;;;;;;1.10;1.10;;;;;;;2.23;72.31;101485.09;103705;1277;139083;-63
2022/01/19 04:08:12;;;;;;;1.20;1.20;;;;;;;2.26;72.54;101479.55;103537;1277;95640;-66
2022/01/19 04:10:40;;;;;;;1.10;1.10;;;;;;;2.28;72.47;101471.89;103440;1277;97704;-64
2022/01/19 04:13:24;;;;;;;1.20;1.20;;;;;;;2.26;72.43;101474.30;103437;1277;139028;-66
2022/01/19 04:15:52;;;;;;;1.30;1.30;;;;;;;2.23;72.63;101469.84;103373;1277;98941;-63
2022/01/19 04:18:20;;;;;;;1.20;1.20;;;;;;;2.25;72.75;101466.91;103438;1277;138446;-64
2022/01/19 04:20:50;;;;;;;1.10;1.10;;;;;;;2.23;73.03;101461.61;103526;1277;95159;-66
2022/01/19 04:23:21;;;;;;;1.20;1.20;;;;;;;2.26;72.97;101459.41;103859;1277;138913;-66
2022/01/19 04:25:49;;;;;;;1.20;1.20;;;;;;;2.28;73.42;101453.67;103582;1278;109701;-64
2022/01/19 04:28:17;;;;;;;1.20;1.20;;;;;;;2.34;73.04;101445.58;103443;1277;99426;-64
2022/01/19 04:30:48;;;;;;;1.20;1.20;;;;;;;2.34;73.27;101451.02;103367;1277;139301;-64
2022/01/19 04:33:22;;;;;;;1.10;1.10;;;;;;;2.36;73.11;101442.83;103510;1277;95204;-66
2022/01/19 04:35:52;;;;;;;1.20;1.20;;;;;;;2.41;73.08;101443.48;103475;1281;138739;-65
2022/01/19 04:44:29;;;;;;;1.20;1.20;;;;;;;2.75;72.40;101435.12;103431;1278;108739;-63
2022/01/19 05:04:19;;;;;;;1.10;1.10;;;;;;;3.18;71.49;101404.27;103562;1277;95556;-65
2022/01/19 05:06:49;;;;;;;1.10;1.10;;;;;;;3.16;71.34;101397.77;103384;1277;138444;-66
2022/01/19 05:14:48;;;;;;;1.10;1.10;;;;;;;3.13;71.57;101385.08;103083;1281;95502;-66
2022/01/19 05:17:16;;;;;;;1.10;1.10;;;;;;;3.15;71.43;101382.30;103304;1278;139964;-63
2022/01/19 05:19:44;;;;;;;1.00;1.00;;;;;;;3.15;71.58;101380.72;103399;1277;109637;-63
2022/01/19 05:22:12;;;;;;;1.10;1.10;;;;;;;3.10;71.59;101376.41;103377;1278;99375;-65
2022/01/19 05:24:46;;;;;;;1.00;1.00;;;;;;;3.08;71.49;101371.11;103298;1276;140706;-65
2022/01/19 05:27:30;;;;;;;1.00;1.00;;;;;;;3.05;71.80;101371.74;103454;1276;96108;-63
2022/01/19 05:29:59;;;;;;;1.10;1.10;;;;;;;3.05;71.95;101374.54;103548;1277;138838;-66
2022/01/19 05:32:27;;;;;;;1.10;1.10;;;;;;;3.09;71.84;101368.84;103397;1277;109700;-64
2022/01/19 05:34:54;;;;;;;1.00;1.00;;;;;;;3.14;72.00;101360.52;103397;1277;99398;-66
2022/01/19 05:37:43;;;;;;;1.00;1.00;;;;;;;3.25;71.55;101353.70;103480;1277;108873;-66
2022/01/19 05:40:33;;;;;;;1.10;1.10;;;;;;;3.31;71.57;101352.08;103526;1277;95232;-64
2022/01/19 05:43:03;;;;;;;1.00;1.00;;;;;;;3.35;71.34;101354.95;103508;1275;138629;-64
2022/01/19 05:45:31;;;;;;;1.00;1.00;;;;;;;3.31;71.02;101357.34;103611;1276;109944;-64
2022/01/19 05:48:11;;;;;;;1.10;1.10;;;;;;;3.28;71.28;101351.51;103334;1277;138732;-65
2022/01/19 05:50:43;;;;;;;1.10;1.10;;;;;;;3.24;71.34;101354.91;103412;1278;108777;-65
2022/01/19 05:53:13;;;;;;;1.10;1.10;;;;;;;3.24;71.35;101357.55;103468;1277;95197;-63
2022/01/19 05:55:41;;;;;;;1.10;1.10;;;;;;;3.22;71.37;101358.21;103396;1277;138467;-64
2022/01/19 05:58:09;;;;;;;1.10;1.10;;;;;;;3.22;71.62;101355.95;103329;1277;109901;-65
2022/01/19 06:00:37;;;;;;;1.00;1.00;;;;;;;3.25;71.46;101357.92;103673;1276;139659;-66
2022/01/19 06:03:08;;;;;;;1.00;1.00;;;;;;;3.23;71.48;101355.95;104143;1277;107702;-64
2022/01/19 06:05:56;;;;;;;1.10;1.10;;;;;;;3.18;71.67;101347.26;103194;1278;138336;-66
2022/01/19 06:08:45;;;;;;;1.00;1.00;;;;;;;3.22;71.63;101343.45;103514;1276;95132;-65
2022/01/19 06:11:16;;;;;;;1.00;1.00;;;;;;;3.26;71.45;101345.14;103442;1277;109681;-67
2022/01/19 06:13:47;;;;;;;1.10;1.10;;;;;;;3.33;71.61;101346.84;103382;1277;138659;-67
2022/01/19 06:16:15;;;;;;;1.10;1.10;;;;;;;3.37;71.26;101342.34;103454;1277;110318;-68
2022/01/19 06:18:43;;;;;;;1.00;1.00;;;;;;;3.35;71.43;101336.86;103461;1277;138283;-67
2022/01/19 06:21:14;;;;;;;1.10;1.10;;;;;;;3.38;71.28;101335.00;103797;1277;95122;-68
2022/01/19 06:23:45;;;;;;;1.00;1.00;;;;;;;3.41;71.36;101329.45;103434;1277;139156;-68
2022/01/19 06:26:16;;;;;;;0.90;0.90;;;;;;;3.43;71.04;101331.57;103539;1277;99366;-68
2022/01/19 06:28:44;;;;;;;1.00;1.00;;;;;;;3.43;71.15;101323.14;103410;1277;109415;-68
2022/01/19 06:31:13;;;;;;;1.00;1.00;;;;;;;3.38;71.11;101326.92;103655;1277;138494;-67
2022/01/19 06:33:41;;;;;;;1.00;1.00;;;;;;;3.35;71.42;101321.23;103372;1277;96162;-66
2022/01/19 06:36:09;;;;;;;1.10;1.10;;;;;;;3.37;71.45;101323.73;103379;1277;139042;-67
2022/01/19 06:38:48;;;;;;;1.00;1.00;;;;;;;3.36;71.14;101323.20;103593;1277;98521;-68
2022/01/19 06:41:54;;;;;;;0.90;0.90;;;;;;;3.41;71.35;101317.49;103117;1277;138791;-68
2022/01/19 06:44:22;;;;;;;0.90;0.90;;;;;;;3.44;71.25;101312.64;103501;1277;95586;-68
2022/01/19 06:46:50;;;;;;;1.00;1.00;;;;;;;3.44;71.05;101310.53;103303;1278;95258;-66
2022/01/19 06:49:18;;;;;;;1.00;1.00;;;;;;;3.44;71.02;101309.66;103217;1277;138582;-67
2022/01/19 06:51:46;;;;;;;0.90;0.90;;;;;;;3.42;71.00;101308.05;103316;1277;100108;-68
2022/01/19 06:54:14;;;;;;;1.00;1.00;;;;;;;3.41;71.01;101303.10;103624;1276;138912;-68
2022/01/19 06:56:42;;;;;;;1.20;1.20;;;;;;;3.37;71.18;101305.48;103252;1277;95253;-67
2022/01/19 06:59:36;;;;;;;1.00;1.00;;;;;;;3.32;71.42;101293.30;103376;1277;139139;-69
2022/01/19 07:02:10;;;;;;;1.00;1.00;;;;;;;3.28;71.44;101294.09;103433;1277;109591;-68
2022/01/19 07:05:14;;;;;;;1.00;1.00;;;;;;;3.35;71.61;101307.73;102892;1283;98207;-69
2022/01/19 07:07:43;;;;;;;1.00;1.00;;;;;;;3.36;71.36;101304.08;103529;1276;139253;-67
2022/01/19 07:10:14;;;;;;;1.10;1.10;;;;;;;3.34;71.59;101304.04;103351;1277;95170;-67
2022/01/19 07:12:42;;;;;;;1.00;1.00;;;;;;;3.35;71.52;101308.62;103428;1277;138607;-66
2022/01/19 07:15:10;;;;;;;1.10;1.10;;;;;;;3.45;71.40;101300.02;103324;1277;110447;-67
2022/01/19 07:17:37;;;;;;;1.00;1.00;;;;;;;3.52;71.10;101298.38;103127;1277;138794;-67
2022/01/19 07:20:06;;;;;;;1.10;1.10;;;;;;;3.53;71.08;101298.03;103149;1277;109057;-67
2022/01/19 07:22:34;;;;;;;1.00;1.00;;;;;;;3.53;70.97;101294.17;103268;1277;95191;-65
2022/01/19 07:25:04;;;;;;;1.00;1.00;;;;;;;3.53;70.94;101293.82;103182;1277;139950;-67
2022/01/19 07:27:32;;;;;;;1.00;1.00;;;;;;;3.55;70.77;101296.32;103417;1277;109734;-67
2022/01/19 07:30:00;;;;;;;0.90;0.90;;;;;;;3.55;70.85;101299.13;107450;1276;138553;-67
2022/01/19 07:32:33;;;;;;;1.10;1.10;;;;;;;3.55;71.09;101296.84;106225;1275;108846;-65
2022/01/19 07:35:04;;;;;;;1.00;1.00;;;;;;;3.61;70.84;101292.55;103899;1277;95428;-65
2022/01/19 07:37:32;;;;;;;0.90;0.90;;;;;;;3.67;70.68;101293.00;103313;1277;139188;-65
2022/01/19 07:40:01;;;;;;;1.20;1.20;;;;;;;3.69;70.53;101291.28;103401;1277;109719;-67
2022/01/19 07:42:29;;;;;;;1.00;1.00;;;;;;;3.65;70.65;101286.99;103313;1277;137995;-66
2022/01/19 07:45:12;;;;;;;1.00;1.00;;;;;;;3.55;70.65;101279.81;103399;1277;108866;-65
2022/01/19 07:47:58;;;;;;;0.90;0.90;;;;;;;3.60;70.76;101274.80;103339;1277;138916;-66
2022/01/19 07:50:48;;;;;;;0.90;0.90;;;;;;;3.63;70.76;101273.81;103468;1277;96027;-68
2022/01/19 07:53:36;;;;;;;1.20;1.20;;;;;;;3.69;70.70;101267.92;103298;1277;138161;-67
2022/01/19 07:56:23;;;;;;;1.10;1.10;;;;;;;3.74;70.54;101264.31;103432;1277;99318;-68
2022/01/19 07:59:11;;;;;;;0.90;0.90;;;;;;;3.79;70.62;101258.23;103401;1277;109024;-68
2022/01/19 08:01:50;;;;;;;1.00;1.00;;;;;;;3.87;70.49;101253.09;103271;1277;138298;-67
2022/01/19 08:04:40;;;;;;;1.00;1.00;;;;;;;3.90;70.11;101245.05;103065;1277;95631;-67
2022/01/19 08:07:08;;;;;;;1.00;1.00;;;;;;;3.87;70.16;101239.92;103572;1276;138503;-67
2022/01/19 08:09:36;;;;;;;0.90;0.90;;;;;;;3.78;70.04;101235.05;103386;1277;99850;-67
2022/01/19 08:12:05;;;;;;;1.00;1.00;;;;;;;3.71;70.28;101235.46;103342;1277;138854;-68
2022/01/19 08:14:34;;;;;;;0.90;0.90;;;;;;;3.67;70.38;101237.16;103548;1277;95824;-69
2022/01/19 08:17:03;;;;;;;1.10;1.10;;;;;;;3.67;70.49;101239.61;103490;1277;95223;-66
2022/01/19 08:19:33;;;;;;;1.00;1.00;;;;;;;3.69;70.56;101231.57;103405;1277;138677;-69
2022/01/19 08:22:02;;;;;;;1.00;1.00;;;;;;;3.73;70.47;101225.65;103455;1277;99866;-68
2022/01/19 08:24:30;;;;;;;0.90;0.90;;;;;;;3.73;70.62;101227.77;103344;1276;138403;-69
2022/01/19 08:27:03;;;;;;;1.00;1.00;;;;;;;3.73;70.46;101223.20;103596;1277;95742;-69
2022/01/19 08:29:37;;;;;;;1.00;1.00;;;;;;;3.70;70.47;101217.88;103727;1277;138623;-68
2022/01/19 08:32:10;;;;;;;1.00;1.00;;;;;;;3.68;70.61;101214.86;103446;1277;109265;-68
2022/01/19 08:35:11;;;;;;;0.90;0.90;;;;;;;3.70;70.71;101207.89;103432;1277;99039;-69
2022/01/19 08:37:57;;;;;;;1.00;1.00;;;;;;;3.70;70.75;101208.92;103397;1277;136847;-67
2022/01/19 08:40:29;;;;;;;1.00;1.00;;;;;;;3.70;70.64;101211.39;103471;1276;96108;-68
2022/01/19 08:43:14;;;;;;;1.00;1.00;;;;;;;3.73;70.69;101211.42;103448;1277;139658;-67
2022/01/19 08:45:42;;;;;;;1.00;1.00;;;;;;;3.83;70.61;101209.82;103476;1276;109738;-68
2022/01/19 08:48:11;;;;;;;1.00;1.00;;;;;;;3.87;70.27;101204.43;103852;1277;138033;-67
2022/01/19 08:50:48;;;;;;;0.90;0.90;;;;;;;3.84;70.35;101198.95;103334;1277;108837;-68
2022/01/19 08:53:45;;;;;;;1.00;1.00;;;;;;;3.84;70.31;101192.80;103288;1277;138903;-66
2022/01/19 08:56:29;;;;;;;0.90;0.90;;;;;;;3.87;70.27;101197.41;103436;1277;95168;-69
2022/01/19 08:58:57;;;;;;;0.80;0.80;;;;;;;3.86;70.32;101195.45;103944;1276;109119;-66
2022/01/19 09:01:24;;;;;;;0.80;0.80;;;;;;;3.92;70.45;101196.95;103353;1277;138467;-66
2022/01/19 09:03:53;;;;;;;1.00;1.00;;;;;;;3.94;70.16;101195.73;103423;1277;108823;-67
2022/01/19 09:06:20;;;;;;;0.90;0.90;;;;;;;4.01;70.45;101196.36;103318;1276;139103;-67
2022/01/19 09:08:48;;;;;;;1.10;1.10;;;;;;;4.11;69.99;101191.04;103440;1277;95532;-68
2022/01/19 09:11:16;;;;;;;1.00;1.00;;;;;;;4.14;69.83;101178.44;103375;1277;109711;-67
2022/01/19 09:13:44;;;;;;;0.90;0.90;;;;;;;4.14;69.51;101178.26;103336;1277;138806;-68
2022/01/19 09:16:16;;;;;;;0.90;0.90;;;;;;;4.08;69.70;101178.89;103385;1277;108846;-67
2022/01/19 09:18:44;;;;;;;0.90;0.90;;;;;;;4.09;69.70;101178.02;103320;1277;139676;-68
2022/01/19 09:21:13;;;;;;;0.90;0.90;;;;;;;4.00;69.76;101177.38;104120;1277;96578;-68
2022/01/19 09:23:41;;;;;;;0.90;0.90;;;;;;;3.97;70.13;101174.00;103380;1277;140128;-66
2022/01/19 09:26:10;;;;;;;1.00;1.00;;;;;;;4.00;69.92;101162.27;103458;1277;99367;-67
2022/01/19 09:28:37;;;;;;;0.90;0.90;;;;;;;4.01;70.09;101160.87;103516;1277;108717;-68
2022/01/19 09:31:25;;;;;;;0.90;0.90;;;;;;;4.05;69.83;101162.15;103287;1277;138726;-68
2022/01/19 09:34:07;;;;;;;1.20;1.20;;;;;;;4.02;69.88;101157.91;103418;1277;95232;-68
2022/01/19 09:36:44;;;;;;;1.00;1.00;;;;;;;4.02;69.88;101160.00;103271;1276;138488;-68
2022/01/19 09:39:21;;;;;;;0.90;0.90;;;;;;;4.05;69.94;101153.01;103523;1276;99388;-67
2022/01/19 09:41:49;;;;;;;0.90;0.90;;;;;;;4.09;69.85;101149.91;103861;1277;138956;-69
2022/01/19 09:44:19;;;;;;;0.90;0.90;;;;;;;4.10;69.88;101145.35;103365;1277;95235;-67
2022/01/19 09:46:48;;;;;;;0.90;0.90;;;;;;;4.14;69.68;101135.73;103611;1276;95712;-69
2022/01/19 09:49:18;;;;;;;0.90;0.90;;;;;;;4.16;69.61;101130.66;103660;1277;138316;-68
2022/01/19 09:51:48;;;;;;;1.00;1.00;;;;;;;4.19;69.56;101126.30;103564;1275;99490;-69
2022/01/19 09:54:26;;;;;;;0.90;0.90;;;;;;;4.21;69.46;101121.57;104037;1277;138077;-68
2022/01/19 09:56:54;;;;;;;0.90;0.90;;;;;;;4.18;69.35;101115.73;103381;1277;95574;-68
2022/01/19 09:59:23;;;;;;;0.90;0.90;;;;;;;4.16;69.55;101107.27;103734;1277;95137;-68
2022/01/19 10:02:05;;;;;;;0.80;0.80;;;;;;;4.14;69.49;101109.02;104091;1277;138342;-68
2022/01/19 10:04:35;;;;;;;1.00;1.00;;;;;;;4.14;69.50;101106.89;103398;1275;99475;-69
2022/01/19 10:07:16;;;;;;;0.90;0.90;;;;;;;4.16;69.65;101106.93;104118;1277;138791;-67
2022/01/19 10:09:57;;;;;;;0.90;0.90;;;;;;;4.28;69.73;101103.90;103466;1277;95326;-68
2022/01/19 10:18:25;;;;;;;0.90;0.90;;;;;;;4.35;69.07;101096.42;103267;1277;139029;-66
2022/01/19 10:21:15;;;;;;;0.90;0.90;;;;;;;4.33;69.09;101096.23;103402;1277;109063;-69
2022/01/19 10:23:50;;;;;;;1.00;1.00;;;;;;;4.28;69.16;101095.65;103583;1277;138740;-66
2022/01/19 10:26:26;;;;;;;0.90;0.90;;;;;;;4.22;69.31;101095.04;103408;1277;95723;-66
2022/01/19 10:29:08;;;;;;;0.90;0.90;;;;;;;4.20;69.44;101094.66;103488;1277;109674;-66
2022/01/19 10:31:38;;;;;;;0.90;0.90;;;;;;;4.24;69.45;101088.56;103391;1277;138820;-67
2022/01/19 10:34:15;;;;;;;0.90;0.90;;;;;;;4.18;69.50;101084.30;103532;1277;108869;-67
2022/01/19 10:37:03;;;;;;;0.90;0.90;;;;;;;4.18;69.58;101079.54;103651;1277;138754;-68
2022/01/19 10:40:02;;;;;;;0.90;0.90;;;;;;;4.14;69.58;101081.42;103585;1276;95643;-67
2022/01/19 10:42:34;;;;;;;0.90;0.90;;;;;;;4.16;69.69;101074.58;103374;1275;138320;-68
2022/01/19 10:45:08;;;;;;;1.00;1.00;;;;;;;4.24;69.67;101065.19;103319;1277;98916;-67
2022/01/19 10:47:39;;;;;;;0.90;0.90;;;;;;;4.22;69.58;101060.08;103348;1277;108006;-67
2022/01/19 10:50:09;;;;;;;0.80;0.80;;;;;;;4.15;69.48;101066.85;103309;1277;138374;-68
2022/01/19 10:52:42;;;;;;;0.90;0.90;;;;;;;4.13;69.76;101062.25;103503;1277;98488;-67
2022/01/19 10:55:24;;;;;;;0.90;0.90;;;;;;;4.08;69.74;101059.55;103247;1277;138699;-67
2022/01/19 10:57:52;;;;;;;1.00;1.00;;;;;;;4.11;69.86;101061.36;103350;1277;99378;-66
2022/01/19 11:00:30;;;;;;;0.90;0.90;;;;;;;4.12;69.75;101062.60;103148;1276;138620;-66
2022/01/19 11:03:19;;;;;;;0.90;0.90;;;;;;;4.13;69.77;101057.86;103434;1277;96955;-68
2022/01/19 11:05:50;;;;;;;1.00;1.00;;;;;;;4.15;69.85;101050.15;103356;1276;137949;-68
2022/01/19 11:08:20;;;;;;;1.00;1.00;;;;;;;4.10;69.72;101049.22;103711;1277;109614;-69
2022/01/19 11:10:53;;;;;;;0.90;0.90;;;;;;;4.12;69.80;101032.20;103792;1277;99422;-66
2022/01/19 11:13:39;;;;;;;1.00;1.00;;;;;;;4.10;69.76;101030.77;103937;1277;138076;-69
2022/01/19 11:16:07;;;;;;;1.00;1.00;;;;;;;4.10;69.86;101020.59;103342;1276;95221;-68
2022/01/19 11:18:39;;;;;;;1.00;1.00;;;;;;;4.12;69.82;101018.48;103307;1277;138796;-66
2022/01/19 11:21:10;;;;;;;0.90;0.90;;;;;;;4.13;69.82;101010.42;103575;1277;109651;-66
2022/01/19 11:24:00;;;;;;;0.90;0.90;;;;;;;4.15;69.63;101017.12;103488;1275;99682;-68
2022/01/19 11:26:30;;;;;;;0.90;0.90;;;;;;;4.13;69.67;101011.81;103310;1277;137568;-67
2022/01/19 11:29:22;;;;;;;0.90;0.90;;;;;;;4.11;69.70;101006.17;103288;1276;95665;-65
2022/01/19 11:31:52;;;;;;;0.90;0.90;;;;;;;4.08;69.70;101001.76;103541;1277;138970;-65
2022/01/19 11:34:42;;;;;;;1.00;1.00;;;;;;;4.10;69.88;100999.84;103842;1275;109301;-68
2022/01/19 11:37:10;;;;;;;0.90;0.90;;;;;;;4.13;69.83;100997.59;103325;1277;138506;-68
2022/01/19 11:39:59;;;;;;;0.90;0.90;;;;;;;4.16;69.73;100997.27;103898;1277;108704;-68
2022/01/19 11:42:26;;;;;;;0.90;0.90;;;;;;;4.17;69.42;100991.48;103292;1276;138688;-68
2022/01/19 11:44:54;;;;;;;0.90;0.90;;;;;;;4.18;69.59;100989.73;103434;1277;95530;-68
2022/01/19 11:47:25;;;;;;;0.90;0.90;;;;;;;4.22;69.46;100984.14;103448;1277;109924;-67
2022/01/19 11:50:00;;;;;;;1.00;1.00;;;;;;;4.16;69.48;100978.64;103262;1277;138481;-69
2022/01/19 11:52:52;;;;;;;0.90;0.90;;;;;;;4.12;69.67;100980.70;103518;1277;108915;-68
2022/01/19 11:55:25;;;;;;;0.90;0.90;;;;;;;4.19;69.71;100972.52;103308;1277;138780;-68
2022/01/19 11:58:14;;;;;;;0.90;0.90;;;;;;;4.23;69.53;100968.84;103491;1277;95904;-68
2022/01/19 12:00:47;;;;;;;0.90;0.90;;;;;;;4.25;69.45;100967.99;103287;1276;138460;-67
2022/01/19 12:03:23;;;;;;;1.00;1.00;;;;;;;4.19;69.33;100960.04;104277;1277;99431;-67
2022/01/19 12:06:31;;;;;;;0.90;0.90;;;;;;;4.12;69.45;100956.64;103256;1276;139260;-67
2022/01/19 12:09:01;;;;;;;0.90;0.90;;;;;;;4.04;69.38;100945.48;103391;1277;95786;-69
2022/01/19 12:11:32;;;;;;;0.90;0.90;;;;;;;4.00;69.63;100942.98;103503;1277;95511;-66
2022/01/19 12:14:19;;;;;;;1.10;1.10;;;;;;;4.00;69.80;100940.89;103338;1277;138120;-65
2022/01/19 12:17:04;;;;;;;1.00;1.00;;;;;;;4.05;69.88;100937.95;103424;1277;99394;-68
2022/01/19 12:19:41;;;;;;;0.90;0.90;;;;;;;4.15;69.47;100932.94;103263;1277;138494;-67
2022/01/19 12:22:20;;;;;;;0.90;0.90;;;;;;;4.10;69.27;100927.26;104392;1277;95910;-68
2022/01/19 12:24:59;;;;;;;1.00;1.00;;;;;;;4.03;69.58;100920.88;104062;1277;138951;-68
2022/01/19 12:27:35;;;;;;;0.90;0.90;;;;;;;3.87;69.78;100916.87;103383;1277;109772;-68
2022/01/19 12:30:10;;;;;;;0.90;0.90;;;;;;;3.83;69.89;100912.08;103384;1277;99549;-68
2022/01/19 12:32:50;;;;;;;0.90;0.90;;;;;;;3.92;69.95;100914.45;103592;1277;138852;-68
2022/01/19 12:35:23;;;;;;;0.90;0.90;;;;;;;3.97;69.76;100909.41;104355;1276;95324;-65
2022/01/19 12:37:54;;;;;;;0.90;0.90;;;;;;;4.01;69.50;100902.41;103431;1277;138022;-67
2022/01/19 12:40:31;;;;;;;0.90;0.90;;;;;;;4.00;69.47;100896.08;104560;1275;109871;-66
2022/01/19 12:43:11;;;;;;;1.00;1.00;;;;;;;4.06;69.62;100893.50;103248;1275;138426;-69
2022/01/19 12:45:47;;;;;;;0.90;0.90;;;;;;;4.06;69.38;100886.12;103571;1277;108787;-66
2022/01/19 12:48:57;;;;;;;0.90;0.90;;;;;;;4.08;69.67;100884.02;104175;1276;139514;-64
2022/01/19 12:51:41;;;;;;;0.90;0.90;;;;;;;4.22;69.59;100878.68;102840;1282;95824;-66
2022/01/19 12:54:12;;;;;;;0.80;0.80;;;;;;;4.28;69.04;100872.04;103778;1281;109873;-67
2022/01/19 12:57:02;;;;;;;0.90;0.90;;;;;;;4.33;69.10;100873.66;103199;1277;137949;-67
2022/01/19 12:59:34;;;;;;;0.90;0.90;;;;;;;4.30;68.70;100875.41;103831;1277;108355;-68
2022/01/19 13:02:03;;;;;;;0.90;0.90;;;;;;;4.26;68.84;100869.21;103321;1275;138679;-68
2022/01/19 13:04:34;;;;;;;0.90;0.90;;;;;;;4.32;68.85;100865.22;103574;1277;95120;-69
2022/01/19 13:07:19;;;;;;;0.80;0.80;;;;;;;4.33;68.62;100860.48;103439;1277;138252;-68
2022/01/19 13:10:14;;;;;;;1.00;1.00;;;;;;;4.26;68.69;100856.03;103642;1277;99431;-69